Frenchville, Maine
Current Conditions -  °F | °C
As of 4:53 AM on Monday 26 Jan 2015 (Local Time) from KFVE Reporting Station
Clear Clear  
Wind Chill: -22°   Ceiling: Unl
Heat Index: -5°   Visibility: 10mi
Dew Point: -13°   Wind: 9mph
Humidity: 69%   Direction: 310°NW
Pressure: 29.93"   Gusts: NA
Location:  47.28°N, 68.38°W
Report Text: KFVE 260953Z AUTO 31008KT 10SM CLR M21/M25 A2993 RMK AO2 SLP160 T12061250
Loading
Personal Weather Stations






























Interactive Weather Map New forecast layout! Learn more

10-Day Weather Forecast

Advertisements
Track Severe Weather on mobile